createdAt,value
2022-10-07T00:01:13.254Z,11.73
2022-10-07T00:03:40.955Z,11.88
2022-10-07T00:06:16.426Z,12.27
2022-10-07T00:08:47.218Z,15.45
2022-10-07T00:11:24.567Z,14.75
2022-10-07T00:13:58.862Z,15.25
2022-10-07T00:16:35.097Z,11.38
2022-10-07T00:19:07.751Z,11.15
2022-10-07T00:21:39.873Z,14.70
2022-10-07T00:24:08.504Z,9.20
2022-10-07T00:26:36.744Z,10.20
2022-10-07T00:29:07.433Z,10.02
2022-10-07T00:31:36.995Z,11.45
2022-10-07T00:34:05.266Z,13.77
2022-10-07T00:36:37.034Z,11.48
2022-10-07T00:39:11.129Z,12.80
2022-10-07T00:41:43.915Z,12.32
2022-10-07T00:44:32.391Z,8.75
2022-10-07T00:47:13.675Z,15.77
2022-10-07T00:49:56.597Z,9.45
2022-10-07T00:52:30.287Z,11.35
2022-10-07T00:55:02.342Z,15.93
2022-10-07T00:57:32.158Z,11.95
2022-10-07T01:00:01.103Z,8.57
2022-10-07T01:02:31.887Z,9.77
2022-10-07T01:05:01.781Z,12.20
2022-10-07T01:07:29.337Z,10.70
2022-10-07T01:09:59.596Z,11.45
2022-10-07T01:13:23.526Z,10.23
2022-10-07T01:16:07.838Z,10.25
2022-10-07T01:18:50.166Z,12.43
2022-10-07T01:21:44.110Z,10.38
2022-10-07T01:24:55.147Z,7.90
2022-10-07T01:27:27.089Z,10.55
2022-10-07T01:30:03.675Z,12.77
2022-10-07T01:32:57.159Z,12.65
2022-10-07T01:35:33.574Z,13.93
2022-10-07T01:38:07.949Z,13.20
2022-10-07T01:40:45.493Z,9.38
2022-10-07T01:43:16.305Z,10.80
2022-10-07T01:45:49.111Z,9.18
2022-10-07T01:48:17.103Z,13.13
2022-10-07T01:50:44.785Z,9.75
2022-10-07T01:53:38.677Z,8.77
2022-10-07T01:56:14.719Z,10.05
2022-10-07T01:59:18.641Z,10.00
2022-10-07T02:02:11.273Z,10.43
2022-10-07T02:05:03.389Z,11.65
2022-10-07T02:08:28.406Z,9.43
2022-10-07T02:11:13.197Z,13.07
2022-10-07T02:13:46.101Z,12.85
2022-10-07T02:16:26.203Z,11.73
2022-10-07T02:18:54.318Z,9.73
2022-10-07T02:21:27.664Z,10.38
2022-10-07T02:23:56.727Z,13.85
2022-10-07T02:26:27.543Z,9.77
2022-10-07T02:29:01.641Z,12.20
2022-10-07T02:31:32.733Z,9.85
2022-10-07T02:34:06.800Z,8.25
2022-10-07T02:36:46.932Z,9.10
2022-10-07T02:39:20.340Z,7.68
2022-10-07T02:42:16.469Z,11.68
2022-10-07T02:45:45.378Z,9.68
2022-10-07T02:48:39.293Z,9.02
2022-10-07T02:51:21.055Z,7.78
2022-10-07T02:53:51.819Z,10.32
2022-10-07T02:56:23.040Z,9.85
2022-10-07T02:58:51.120Z,9.23
2022-10-07T03:01:30.794Z,5.88
2022-10-07T03:03:58.496Z,6.43
2022-10-07T03:06:31.837Z,5.97
2022-10-07T03:09:00.489Z,8.52
2022-10-07T03:11:27.592Z,8.52
2022-10-07T03:13:58.464Z,9.50
2022-10-07T03:16:26.077Z,8.30
2022-10-07T03:18:54.225Z,8.93
2022-10-07T03:21:22.174Z,9.30
2022-10-07T03:23:54.049Z,11.57
2022-10-07T03:26:22.189Z,10.95
2022-10-07T03:28:49.306Z,9.38
2022-10-07T03:31:16.497Z,7.63
2022-10-07T03:33:46.410Z,7.72
2022-10-07T03:36:13.807Z,7.90
2022-10-07T03:38:40.879Z,7.05
2022-10-07T03:41:08.113Z,6.68
2022-10-07T03:43:35.649Z,7.15
2022-10-07T03:46:02.948Z,10.65
2022-10-07T03:48:31.299Z,9.23
2022-10-07T03:50:59.297Z,9.48
2022-10-07T03:53:30.020Z,6.80
2022-10-07T03:55:57.807Z,9.50
2022-10-07T03:58:25.839Z,8.35
2022-10-07T04:01:08.741Z,10.30
2022-10-07T04:03:35.817Z,10.98
2022-10-07T04:06:03.855Z,11.40
2022-10-07T04:08:33.098Z,10.13
2022-10-07T04:11:02.081Z,9.25
2022-10-07T04:13:30.045Z,11.48
2022-10-07T04:16:10.396Z,16.77
2022-10-07T04:18:37.766Z,12.88
2022-10-07T04:21:12.102Z,8.38
2022-10-07T04:23:42.287Z,11.05
2022-10-07T04:26:13.309Z,8.43
2022-10-07T04:28:41.179Z,9.75
2022-10-07T04:31:10.745Z,10.43
2022-10-07T04:33:42.239Z,7.88
2022-10-07T04:36:12.987Z,13.63
2022-10-07T04:38:42.592Z,10.70
2022-10-07T04:41:09.685Z,9.18
2022-10-07T04:43:36.837Z,9.93
2022-10-07T04:46:10.902Z,7.95
2022-10-07T04:48:38.074Z,11.35
2022-10-07T04:51:08.643Z,20.33
2022-10-07T04:53:40.052Z,20.90
2022-10-07T04:56:08.176Z,19.10
2022-10-07T04:58:36.758Z,29.90
2022-10-07T05:01:09.993Z,25.83
2022-10-07T05:03:39.463Z,21.80
2022-10-07T05:06:07.313Z,14.93
2022-10-07T05:08:34.451Z,19.88
2022-10-07T05:11:02.761Z,23.13
2022-10-07T05:13:31.290Z,21.92
2022-10-07T05:16:05.080Z,19.48
2022-10-07T05:18:34.290Z,18.58
2022-10-07T05:21:07.154Z,18.13
2022-10-07T05:23:36.839Z,16.63
2022-10-07T05:26:09.619Z,18.05
2022-10-07T05:28:41.209Z,22.33
2022-10-07T05:31:13.846Z,20.73
2022-10-07T05:33:42.864Z,22.70
2022-10-07T05:36:12.211Z,27.50
2022-10-07T05:38:39.468Z,26.13
2022-10-07T05:41:11.252Z,19.42
2022-10-07T05:43:43.110Z,21.90
2022-10-07T05:46:16.604Z,21.65
2022-10-07T05:48:49.596Z,20.73
2022-10-07T05:51:17.425Z,21.23
2022-10-07T05:53:48.503Z,16.20
2022-10-07T05:56:22.945Z,18.48
2022-10-07T05:58:52.644Z,16.48
2022-10-07T06:01:24.541Z,16.42
2022-10-07T06:03:57.418Z,15.23
2022-10-07T06:06:26.316Z,19.00
2022-10-07T06:08:53.829Z,17.27
2022-10-07T06:11:40.222Z,13.38
2022-10-07T06:16:34.479Z,15.07
2022-10-07T06:19:22.808Z,14.20
2022-10-07T06:21:50.676Z,15.43
2022-10-07T06:24:18.014Z,20.13
2022-10-07T06:26:51.274Z,12.43
2022-10-07T06:29:22.424Z,19.30
2022-10-07T06:31:49.724Z,12.93
2022-10-07T06:34:18.205Z,15.15
2022-10-07T06:36:48.472Z,13.23
2022-10-07T06:39:17.948Z,20.85
2022-10-07T06:41:48.147Z,15.73
2022-10-07T06:44:15.421Z,13.55
2022-10-07T06:46:45.997Z,11.73
2022-10-07T06:49:13.136Z,24.10
2022-10-07T06:51:40.279Z,19.65
2022-10-07T06:54:13.037Z,15.32
2022-10-07T06:56:40.474Z,18.48
2022-10-07T06:59:07.868Z,22.02
2022-10-07T07:01:35.559Z,17.98
2022-10-07T07:04:02.845Z,17.85
2022-10-07T07:06:37.135Z,30.98
2022-10-07T07:09:05.387Z,19.88
2022-10-07T07:11:41.054Z,24.70
2022-10-07T07:14:11.525Z,25.50
2022-10-07T07:16:39.965Z,22.27
2022-10-07T07:19:10.870Z,31.42
2022-10-07T07:21:38.372Z,28.40
2022-10-07T07:24:09.170Z,30.05
2022-10-07T07:26:37.838Z,27.58
2022-10-07T07:29:06.559Z,26.60
2022-10-07T07:31:36.544Z,31.00
2022-10-07T07:34:13.154Z,28.65
2022-10-07T07:36:53.484Z,33.72
2022-10-07T07:39:21.014Z,25.75
2022-10-07T07:41:50.824Z,30.60
2022-10-07T07:44:19.256Z,30.75
2022-10-07T07:46:51.198Z,32.65
2022-10-07T07:49:23.546Z,28.55
2022-10-07T07:51:51.184Z,23.25
2022-10-07T07:54:19.044Z,29.38
2022-10-07T07:56:49.325Z,31.67
2022-10-07T07:59:17.066Z,29.92
2022-10-07T08:01:45.395Z,31.13
2022-10-07T08:04:13.841Z,32.33
2022-10-07T08:06:44.616Z,25.17
2022-10-07T08:09:13.033Z,24.00
2022-10-07T08:11:45.219Z,29.10
2022-10-07T08:14:14.089Z,24.38
2022-10-07T08:16:44.987Z,26.33
2022-10-07T08:19:12.535Z,20.42
2022-10-07T08:21:39.783Z,31.60
2022-10-07T08:24:08.388Z,33.03
2022-10-07T08:26:38.104Z,30.55
2022-10-07T08:29:08.263Z,25.65
2022-10-07T08:31:35.922Z,28.65
2022-10-07T08:34:06.371Z,28.23
2022-10-07T08:36:34.456Z,33.40
2022-10-07T08:39:05.587Z,33.20
2022-10-07T08:41:52.665Z,36.45
2022-10-07T08:44:47.678Z,34.03
2022-10-07T08:47:38.603Z,36.63
2022-10-07T08:50:46.621Z,29.80
2022-10-07T08:53:23.635Z,37.20
2022-10-07T08:56:01.824Z,34.50
2022-10-07T08:58:35.220Z,28.75
2022-10-07T09:01:32.952Z,30.67
2022-10-07T09:04:10.619Z,26.80
2022-10-07T09:06:52.069Z,25.77
2022-10-07T09:09:40.602Z,27.50
2022-10-07T09:12:19.172Z,29.52
2022-10-07T09:14:48.149Z,30.25
2022-10-07T09:17:34.885Z,26.20
2022-10-07T09:20:15.260Z,27.48
2022-10-07T09:22:53.383Z,25.65
2022-10-07T09:25:30.339Z,25.25
2022-10-07T09:27:58.168Z,30.60
2022-10-07T09:30:28.003Z,28.45
2022-10-07T09:32:57.097Z,26.70
2022-10-07T09:35:34.029Z,27.65
2022-10-07T09:38:09.965Z,22.75
2022-10-07T09:41:07.624Z,23.67
2022-10-07T09:43:36.004Z,26.00
2022-10-07T09:46:03.535Z,21.98
2022-10-07T09:48:34.770Z,24.17
2022-10-07T09:51:25.473Z,21.23
2022-10-07T09:54:18.632Z,18.35
2022-10-07T09:56:47.537Z,30.05
2022-10-07T09:59:22.927Z,23.13
2022-10-07T10:02:13.561Z,21.10
2022-10-07T10:04:57.377Z,25.13
2022-10-07T10:07:29.226Z,22.83
2022-10-07T10:10:03.537Z,32.30
2022-10-07T10:12:42.694Z,28.90
2022-10-07T10:15:22.970Z,27.08
2022-10-07T10:17:57.058Z,26.90
2022-10-07T10:20:44.705Z,27.52
2022-10-07T10:23:36.965Z,21.50
2022-10-07T10:26:33.681Z,25.48
2022-10-07T10:29:39.602Z,22.45
2022-10-07T10:32:28.266Z,21.08
2022-10-07T10:35:31.458Z,15.15
2022-10-07T10:38:29.600Z,17.88
2022-10-07T10:41:02.124Z,12.57
2022-10-07T10:44:04.940Z,17.88
2022-10-07T10:46:52.034Z,13.52
2022-10-07T10:49:30.304Z,17.35
2022-10-07T10:52:21.661Z,15.40
2022-10-07T10:55:14.186Z,15.65
2022-10-07T10:58:05.385Z,15.43
2022-10-07T11:00:57.619Z,14.35
2022-10-07T11:04:05.033Z,16.80
2022-10-07T11:06:38.654Z,14.35
2022-10-07T11:09:14.881Z,13.65
2022-10-07T11:11:44.903Z,14.15
2022-10-07T11:14:20.212Z,19.25
2022-10-07T11:16:57.716Z,13.82
2022-10-07T11:19:39.722Z,15.80
2022-10-07T11:22:17.571Z,17.70
2022-10-07T11:24:50.964Z,12.88
2022-10-07T11:27:28.706Z,10.18
2022-10-07T11:30:19.269Z,14.98
2022-10-07T11:33:13.458Z,10.25
2022-10-07T11:35:59.386Z,12.63
2022-10-07T11:38:34.207Z,13.82
2022-10-07T11:41:20.481Z,9.93
2022-10-07T11:43:53.286Z,12.38
2022-10-07T11:46:48.879Z,12.13
2022-10-07T11:49:41.271Z,9.30
2022-10-07T11:52:21.997Z,13.13
2022-10-07T11:55:07.374Z,11.68
2022-10-07T11:57:38.443Z,8.98
2022-10-07T12:00:23.171Z,16.27
2022-10-07T12:02:51.245Z,11.32
2022-10-07T12:05:36.736Z,11.07
2022-10-07T12:08:53.190Z,7.80
2022-10-07T12:11:22.657Z,20.85
2022-10-07T12:13:54.502Z,7.32
2022-10-07T12:16:28.135Z,17.25
2022-10-07T12:19:07.543Z,9.35
2022-10-07T12:22:03.078Z,10.93
2022-10-07T12:24:37.796Z,9.93
2022-10-07T12:27:29.392Z,11.52
2022-10-07T12:29:58.988Z,11.27
2022-10-07T12:32:48.155Z,8.07
2022-10-07T12:35:33.410Z,6.70
2022-10-07T12:38:30.252Z,6.93
2022-10-07T12:41:40.083Z,9.82
2022-10-07T12:44:40.965Z,11.55
2022-10-07T12:47:17.585Z,9.75
2022-10-07T12:50:02.881Z,6.07
2022-10-07T12:52:36.284Z,6.43
2022-10-07T12:55:20.904Z,8.88
2022-10-07T12:57:54.460Z,15.73
2022-10-07T13:00:24.900Z,12.90
2022-10-07T13:03:29.097Z,11.93
2022-10-07T13:06:13.971Z,5.82
2022-10-07T13:09:14.580Z,9.27
2022-10-07T13:12:13.012Z,11.13
2022-10-07T13:15:13.518Z,7.97
2022-10-07T13:17:46.959Z,10.82
2022-10-07T13:20:33.304Z,10.23
2022-10-07T13:23:26.089Z,28.30
2022-10-07T13:25:58.576Z,10.50
2022-10-07T13:28:38.090Z,8.68
2022-10-07T13:31:25.793Z,10.13
2022-10-07T13:33:59.282Z,8.10
2022-10-07T13:36:34.827Z,11.18
2022-10-07T13:39:22.942Z,20.98
2022-10-07T13:41:57.067Z,9.80
2022-10-07T13:44:30.483Z,6.35
2022-10-07T13:47:06.013Z,14.50
2022-10-07T13:49:43.545Z,9.23
2022-10-07T13:52:31.837Z,11.65
2022-10-07T13:55:02.131Z,8.90
2022-10-07T13:57:31.442Z,8.98
2022-10-07T14:00:00.066Z,17.00
2022-10-07T14:02:28.330Z,7.43
2022-10-07T14:05:13.996Z,10.52
2022-10-07T14:07:42.501Z,6.50
2022-10-07T14:10:11.125Z,6.10
2022-10-07T14:12:48.828Z,9.68
2022-10-07T14:15:29.455Z,5.10
2022-10-07T14:18:06.525Z,11.13
2022-10-07T14:20:45.302Z,10.55
2022-10-07T14:23:33.888Z,8.35
2022-10-07T14:26:14.348Z,16.58
2022-10-07T14:28:43.148Z,6.80
2022-10-07T14:31:38.900Z,8.68
2022-10-07T14:34:37.008Z,7.32
2022-10-07T14:37:26.227Z,13.77
2022-10-07T14:39:56.764Z,12.68
2022-10-07T14:42:33.492Z,7.80
2022-10-07T14:45:04.925Z,11.52
2022-10-07T14:47:32.508Z,10.20
2022-10-07T14:50:01.343Z,5.57
2022-10-07T14:52:35.442Z,8.70
2022-10-07T14:55:16.134Z,9.45
2022-10-07T14:57:44.418Z,5.95
2022-10-07T15:00:20.166Z,5.93
2022-10-07T15:02:50.241Z,7.15
2022-10-07T15:05:19.143Z,10.77
2022-10-07T15:07:46.582Z,7.20
2022-10-07T15:10:26.317Z,9.82
2022-10-07T15:12:56.016Z,11.70
2022-10-07T15:15:23.181Z,12.50
2022-10-07T15:17:50.357Z,8.73
2022-10-07T15:20:21.340Z,9.20
2022-10-07T15:22:50.328Z,8.55
2022-10-07T15:25:18.104Z,12.55
2022-10-07T15:27:45.527Z,5.47
2022-10-07T15:30:13.448Z,9.65
2022-10-07T15:32:40.703Z,7.68
2022-10-07T15:35:08.577Z,7.63
2022-10-07T15:37:35.738Z,10.90
2022-10-07T15:40:03.112Z,9.93
2022-10-07T15:42:30.527Z,9.30
2022-10-07T15:45:00.752Z,8.07
2022-10-07T15:47:28.224Z,15.77
2022-10-07T15:49:58.117Z,9.48
2022-10-07T15:52:26.231Z,26.27
2022-10-07T15:54:53.461Z,7.90
2022-10-07T15:57:24.228Z,5.82
2022-10-07T15:59:54.680Z,11.02
2022-10-07T16:02:22.518Z,11.68
2022-10-07T16:04:53.102Z,8.05
2022-10-07T16:07:20.328Z,9.88
2022-10-07T16:09:47.482Z,38.08
2022-10-07T16:12:14.656Z,20.38
2022-10-07T16:14:41.892Z,26.83
2022-10-07T16:17:09.424Z,41.63
2022-10-07T16:19:36.516Z,12.98
2022-10-07T16:22:03.784Z,8.75
2022-10-07T16:24:35.278Z,11.30
2022-10-07T16:27:03.088Z,9.07
2022-10-07T16:29:51.927Z,8.25
2022-10-07T16:34:47.013Z,8.93
2022-10-07T16:37:15.479Z,9.20
2022-10-07T16:39:43.055Z,8.45
2022-10-07T16:42:16.350Z,8.00
2022-10-07T16:44:47.276Z,8.55
2022-10-07T16:47:17.026Z,9.15
2022-10-07T16:49:44.220Z,9.25
2022-10-07T16:52:11.378Z,7.50
2022-10-07T16:54:39.839Z,7.47
2022-10-07T16:57:06.902Z,9.63
2022-10-07T16:59:34.450Z,9.68
2022-10-07T17:02:03.224Z,14.52
2022-10-07T17:04:30.446Z,11.95
2022-10-07T17:06:58.442Z,9.02
2022-10-07T17:09:25.633Z,7.50
2022-10-07T17:11:52.809Z,7.75
2022-10-07T17:14:23.051Z,8.82
2022-10-07T17:16:57.310Z,11.95
2022-10-07T17:19:27.331Z,7.68
2022-10-07T17:21:58.569Z,9.73
2022-10-07T17:24:25.793Z,9.23
2022-10-07T17:26:53.509Z,7.78
2022-10-07T17:29:26.206Z,14.00
2022-10-07T17:31:53.869Z,10.27
2022-10-07T17:34:22.542Z,11.10
2022-10-07T17:36:50.495Z,10.23
2022-10-07T17:39:21.487Z,9.00
2022-10-07T17:41:52.038Z,9.68
2022-10-07T17:44:20.863Z,7.75
2022-10-07T17:46:51.143Z,10.02
2022-10-07T17:49:18.349Z,10.65
2022-10-07T17:51:45.432Z,10.55
2022-10-07T17:54:14.327Z,9.25
2022-10-07T17:56:43.437Z,13.98
2022-10-07T17:59:10.634Z,9.15
2022-10-07T18:01:37.999Z,10.18
2022-10-07T18:04:17.940Z,6.68
2022-10-07T18:06:48.365Z,9.80
2022-10-07T18:09:19.604Z,8.32
2022-10-07T18:12:09.174Z,12.07
2022-10-07T18:17:24.994Z,9.47
2022-10-07T18:19:52.590Z,8.30
2022-10-07T18:22:20.446Z,10.32
2022-10-07T18:24:47.816Z,8.10
2022-10-07T18:27:15.273Z,12.88
2022-10-07T18:29:44.159Z,8.25
2022-10-07T18:32:11.354Z,9.27
2022-10-07T18:34:39.172Z,14.20
2022-10-07T18:37:06.494Z,9.85
2022-10-07T18:39:33.796Z,12.30
2022-10-07T18:42:01.291Z,10.07
2022-10-07T18:44:29.338Z,10.15
2022-10-07T18:46:58.810Z,8.82
2022-10-07T18:49:30.800Z,8.15
2022-10-07T18:52:02.133Z,8.27
2022-10-07T18:54:33.092Z,12.25
2022-10-07T18:57:04.846Z,13.25
2022-10-07T18:59:33.222Z,9.23
2022-10-07T19:02:05.679Z,10.93
2022-10-07T19:04:34.224Z,13.68
2022-10-07T19:07:12.277Z,13.20
2022-10-07T19:09:45.120Z,8.75
2022-10-07T19:12:35.152Z,9.90
2022-10-07T19:15:04.281Z,9.50
2022-10-07T19:20:18.156Z,10.55
2022-10-07T19:22:45.405Z,13.30
2022-10-07T19:25:31.068Z,12.38
2022-10-07T19:27:58.250Z,9.00
2022-10-07T19:30:28.797Z,9.85
2022-10-07T19:32:58.965Z,12.82
2022-10-07T19:35:25.996Z,11.82
2022-10-07T19:37:54.514Z,9.07
2022-10-07T19:40:21.865Z,15.98
2022-10-07T19:42:50.370Z,10.30
2022-10-07T19:45:17.580Z,11.35
2022-10-07T19:47:46.342Z,13.20
2022-10-07T19:50:14.697Z,11.90
2022-10-07T19:52:43.513Z,10.75
2022-10-07T19:55:11.702Z,10.05
2022-10-07T19:57:38.967Z,11.27
2022-10-07T20:00:10.298Z,10.25
2022-10-07T20:02:37.539Z,11.13
2022-10-07T20:05:08.588Z,12.18
2022-10-07T20:07:36.352Z,10.55
2022-10-07T20:10:04.463Z,11.85
2022-10-07T20:12:37.104Z,11.30
2022-10-07T20:15:04.664Z,12.50
2022-10-07T20:17:31.839Z,15.55
2022-10-07T20:19:59.121Z,11.63
2022-10-07T20:22:26.571Z,14.65
2022-10-07T20:24:53.646Z,13.00
2022-10-07T20:27:21.690Z,11.57
2022-10-07T20:29:57.827Z,14.05
2022-10-07T20:32:34.025Z,13.38
2022-10-07T20:35:06.866Z,12.70
2022-10-07T20:37:34.119Z,11.25
2022-10-07T20:40:20.077Z,12.18
2022-10-07T20:42:47.281Z,11.82
2022-10-07T20:45:17.655Z,14.75
2022-10-07T20:47:46.345Z,13.27
2022-10-07T20:50:14.187Z,12.38
2022-10-07T20:52:41.490Z,13.50
2022-10-07T20:55:14.252Z,11.75
2022-10-07T20:57:41.898Z,13.50
2022-10-07T21:00:16.214Z,13.48
2022-10-07T21:02:47.311Z,14.60
2022-10-07T21:05:14.858Z,11.10
2022-10-07T21:07:42.912Z,14.45
2022-10-07T21:10:19.696Z,16.17
2022-10-07T21:12:47.180Z,13.90
2022-10-07T21:15:19.335Z,18.83
2022-10-07T21:17:48.815Z,12.50
2022-10-07T21:20:15.948Z,14.77
2022-10-07T21:22:43.337Z,12.15
2022-10-07T21:25:13.039Z,10.73
2022-10-07T21:27:40.104Z,13.40
2022-10-07T21:30:08.336Z,12.15
2022-10-07T21:32:35.430Z,13.57
2022-10-07T21:35:02.556Z,13.48
2022-10-07T21:37:33.071Z,11.05
2022-10-07T21:40:00.275Z,11.55
2022-10-07T21:42:30.243Z,13.02
2022-10-07T21:45:00.368Z,10.48
2022-10-07T21:47:27.579Z,12.13
2022-10-07T21:49:58.026Z,15.23
2022-10-07T21:52:25.205Z,11.10
2022-10-07T21:54:56.159Z,13.05
2022-10-07T21:57:23.712Z,14.77
2022-10-07T21:59:52.260Z,11.93
2022-10-07T22:02:19.995Z,13.43
2022-10-07T22:04:50.556Z,14.18
2022-10-07T22:07:36.199Z,15.23
2022-10-07T22:10:03.832Z,13.38
2022-10-07T22:12:34.016Z,13.45
2022-10-07T22:15:01.102Z,13.13
2022-10-07T22:17:28.301Z,12.05
2022-10-07T22:19:55.674Z,11.57
2022-10-07T22:22:26.073Z,13.82
2022-10-07T22:24:53.638Z,14.95
2022-10-07T22:27:25.193Z,12.85
2022-10-07T22:29:52.289Z,18.65
2022-10-07T22:32:22.906Z,14.57
2022-10-07T22:35:08.714Z,13.27
2022-10-07T22:37:35.949Z,12.85
2022-10-07T22:40:03.291Z,13.57
2022-10-07T22:42:35.414Z,14.82
2022-10-07T22:45:02.630Z,15.63
2022-10-07T22:47:30.175Z,12.35
2022-10-07T22:49:57.710Z,11.40
2022-10-07T22:52:25.253Z,12.07
2022-10-07T22:54:55.311Z,15.65
2022-10-07T22:57:23.431Z,14.60
2022-10-07T22:59:51.090Z,14.30
2022-10-07T23:02:18.318Z,14.73
2022-10-07T23:04:46.281Z,15.25
2022-10-07T23:07:13.688Z,16.65
2022-10-07T23:09:44.287Z,16.08
2022-10-07T23:12:11.428Z,20.08
2022-10-07T23:14:38.496Z,17.60
2022-10-07T23:17:05.640Z,15.38
2022-10-07T23:19:32.953Z,15.18
2022-10-07T23:22:00.304Z,13.20
2022-10-07T23:24:28.416Z,15.75
2022-10-07T23:26:55.422Z,14.57
2022-10-07T23:29:23.063Z,13.07
2022-10-07T23:31:53.211Z,15.23
2022-10-07T23:34:20.239Z,13.77
2022-10-07T23:36:47.315Z,14.77
2022-10-07T23:39:14.959Z,17.25
2022-10-07T23:41:42.282Z,14.40
2022-10-07T23:44:09.327Z,16.25
2022-10-07T23:46:36.677Z,17.33
2022-10-07T23:49:04.544Z,15.02
2022-10-07T23:51:35.189Z,15.10
2022-10-07T23:54:03.986Z,13.75
2022-10-07T23:56:32.421Z,13.10
2022-10-07T23:59:00.583Z,12.93
